createdAt,value
2023-03-26T00:00:50.003Z,7.18
2023-03-26T00:01:50.077Z,7.14
2023-03-26T00:02:50.026Z,7.18
2023-03-26T00:03:49.968Z,7.14
2023-03-26T00:04:49.975Z,7.18
2023-03-26T00:05:49.995Z,7.18
2023-03-26T00:06:49.950Z,7.15
2023-03-26T00:07:49.916Z,7.14
2023-03-26T00:08:49.921Z,7.14
2023-03-26T00:09:49.902Z,7.13
2023-03-26T00:10:49.907Z,7.15
2023-03-26T00:11:49.901Z,7.14
2023-03-26T00:12:49.882Z,7.14
2023-03-26T00:13:49.866Z,7.15
2023-03-26T00:14:49.860Z,7.17
2023-03-26T00:15:49.837Z,7.15
2023-03-26T00:16:49.885Z,7.14
2023-03-26T00:17:51.158Z,7.15
2023-03-26T00:18:49.848Z,7.14
2023-03-26T00:19:49.785Z,7.18
2023-03-26T00:20:49.804Z,7.17
2023-03-26T00:21:49.773Z,7.17
2023-03-26T00:22:49.781Z,7.17
2023-03-26T00:23:49.789Z,7.14
2023-03-26T00:24:49.754Z,7.17
2023-03-26T00:25:49.728Z,7.20
2023-03-26T00:26:49.735Z,7.20
2023-03-26T00:27:49.718Z,7.17
2023-03-26T00:28:49.730Z,7.18
2023-03-26T00:29:49.764Z,7.18
2023-03-26T00:30:49.741Z,7.17
2023-03-26T00:31:49.689Z,7.15
2023-03-26T00:32:53.477Z,7.17
2023-03-26T00:33:49.672Z,7.20
2023-03-26T00:34:49.647Z,7.20
2023-03-26T00:35:49.795Z,7.17
2023-03-26T00:36:49.616Z,7.20
2023-03-26T00:37:49.656Z,7.20
2023-03-26T00:38:49.605Z,7.18
2023-03-26T00:39:49.606Z,7.20
2023-03-26T00:40:49.575Z,7.24
2023-03-26T00:41:49.610Z,7.21
2023-03-26T00:42:49.564Z,7.20
2023-03-26T00:43:49.569Z,7.21
2023-03-26T00:44:49.532Z,7.23
2023-03-26T00:45:49.583Z,7.24
2023-03-26T00:46:49.516Z,7.24
2023-03-26T00:47:49.607Z,7.24
2023-03-26T00:48:49.498Z,7.28
2023-03-26T00:49:49.506Z,7.29
2023-03-26T00:50:49.493Z,7.29
2023-03-26T00:51:49.504Z,7.28
2023-03-26T00:52:49.471Z,7.28
2023-03-26T00:53:49.509Z,7.25
2023-03-26T00:54:49.442Z,7.25
2023-03-26T00:55:49.465Z,7.29
2023-03-26T00:56:49.436Z,7.28
2023-03-26T00:57:49.425Z,7.25
2023-03-26T00:58:49.398Z,7.24
2023-03-26T00:59:49.431Z,7.23
2023-03-26T01:00:49.379Z,7.21
2023-03-26T01:01:49.412Z,7.18
2023-03-26T01:02:49.400Z,7.20
2023-03-26T01:04:04.788Z,7.23
2023-03-26T01:04:49.400Z,7.20
2023-03-26T01:05:49.365Z,7.23
2023-03-26T01:06:49.305Z,7.21
2023-03-26T01:07:49.326Z,7.20
2023-03-26T01:08:49.296Z,7.23
2023-03-26T01:09:49.311Z,7.24
2023-03-26T01:10:49.272Z,7.25
2023-03-26T01:11:49.298Z,7.24
2023-03-26T01:12:49.240Z,7.24
2023-03-26T01:13:49.256Z,7.24
2023-03-26T01:14:50.602Z,7.25
2023-03-26T01:15:49.262Z,7.28
2023-03-26T01:16:49.206Z,7.31
2023-03-26T01:17:49.284Z,7.31
2023-03-26T01:18:49.187Z,7.29
2023-03-26T01:19:49.193Z,7.31
2023-03-26T01:20:49.171Z,7.29
2023-03-26T01:21:49.173Z,7.25
2023-03-26T01:22:49.134Z,7.28
2023-03-26T01:23:49.171Z,7.25
2023-03-26T01:24:49.143Z,7.28
2023-03-26T01:25:49.132Z,7.25
2023-03-26T01:26:49.096Z,7.25
2023-03-26T01:27:49.118Z,7.29
2023-03-26T01:28:49.075Z,7.28
2023-03-26T01:29:49.105Z,7.29
2023-03-26T01:30:49.056Z,7.29
2023-03-26T01:31:49.072Z,7.29
2023-03-26T01:32:49.128Z,7.32
2023-03-26T01:33:49.100Z,7.31
2023-03-26T01:34:49.014Z,7.31
2023-03-26T01:35:49.106Z,7.33
2023-03-26T01:36:49.004Z,7.32
2023-03-26T01:37:49.026Z,7.33
2023-03-26T01:38:48.974Z,7.32
2023-03-26T01:39:48.987Z,7.33
2023-03-26T01:40:48.964Z,7.32
2023-03-26T01:41:48.991Z,7.35
2023-03-26T01:42:48.925Z,7.35
2023-03-26T01:43:48.946Z,7.35
2023-03-26T01:44:48.907Z,7.36
2023-03-26T01:45:48.958Z,7.36
2023-03-26T01:46:48.908Z,7.38
2023-03-26T01:47:48.981Z,7.39
2023-03-26T01:48:48.889Z,7.36
2023-03-26T01:49:48.880Z,7.36
2023-03-26T01:50:48.860Z,7.38
2023-03-26T01:51:48.863Z,7.39
2023-03-26T01:52:48.844Z,7.35
2023-03-26T01:53:48.859Z,7.36
2023-03-26T01:54:48.816Z,7.36
2023-03-26T01:55:48.826Z,7.40
2023-03-26T01:56:48.813Z,7.36
2023-03-26T01:57:48.800Z,7.38
2023-03-26T01:58:48.776Z,7.39
2023-03-26T01:59:48.808Z,7.39
2023-03-26T02:00:48.761Z,7.43
2023-03-26T02:01:48.826Z,7.43
2023-03-26T02:02:48.856Z,7.45
2023-03-26T02:03:48.831Z,7.40
2023-03-26T02:04:48.703Z,7.40
2023-03-26T02:05:48.755Z,7.43
2023-03-26T02:06:48.688Z,7.43
2023-03-26T02:07:48.705Z,7.42
2023-03-26T02:08:48.666Z,7.45
2023-03-26T02:09:48.678Z,7.43
2023-03-26T02:10:48.641Z,7.45
2023-03-26T02:11:48.684Z,7.48
2023-03-26T02:12:48.634Z,7.47
2023-03-26T02:13:48.629Z,7.48
2023-03-26T02:14:48.608Z,7.50
2023-03-26T02:15:48.634Z,7.48
2023-03-26T02:16:48.583Z,7.48
2023-03-26T02:17:48.790Z,7.48
2023-03-26T02:18:48.570Z,7.51
2023-03-26T02:19:48.584Z,7.53
2023-03-26T02:20:48.536Z,7.54
2023-03-26T02:21:48.552Z,7.51
2023-03-26T02:22:48.515Z,7.53
2023-03-26T02:23:48.550Z,7.53
2023-03-26T02:24:48.516Z,7.51
2023-03-26T02:25:48.525Z,7.54
2023-03-26T02:26:48.480Z,7.51
2023-03-26T02:27:48.493Z,7.53
2023-03-26T02:28:48.458Z,7.53
2023-03-26T02:29:48.522Z,7.51
2023-03-26T02:30:48.431Z,7.53
2023-03-26T02:31:48.577Z,7.56
2023-03-26T02:32:48.463Z,7.54
2023-03-26T02:33:48.434Z,7.54
2023-03-26T02:34:48.394Z,7.53
2023-03-26T02:35:48.484Z,7.51
2023-03-26T02:36:48.422Z,7.53
2023-03-26T02:37:48.416Z,7.50
2023-03-26T02:38:48.360Z,7.51
2023-03-26T02:39:48.355Z,7.45
2023-03-26T02:40:48.339Z,7.43
2023-03-26T02:41:48.369Z,7.47
2023-03-26T02:42:48.320Z,7.43
2023-03-26T02:43:48.345Z,7.45
2023-03-26T02:44:48.283Z,7.43
2023-03-26T02:45:48.368Z,7.45
2023-03-26T02:46:48.263Z,7.48
2023-03-26T02:47:48.336Z,7.48
2023-03-26T02:48:48.239Z,7.48
2023-03-26T02:49:48.257Z,7.50
2023-03-26T02:50:48.229Z,7.48
2023-03-26T02:51:48.236Z,7.51
2023-03-26T02:52:48.201Z,7.53
2023-03-26T02:53:48.259Z,7.50
2023-03-26T02:54:48.177Z,7.53
2023-03-26T02:55:48.202Z,7.51
2023-03-26T02:56:48.231Z,7.54
2023-03-26T02:57:48.178Z,7.54
2023-03-26T02:58:48.145Z,7.53
2023-03-26T02:59:48.180Z,7.54
2023-03-26T03:00:48.150Z,7.53
2023-03-26T03:01:48.140Z,7.56
2023-03-26T03:02:48.483Z,7.54
2023-03-26T03:03:48.114Z,7.54
2023-03-26T03:04:48.085Z,7.53
2023-03-26T03:05:48.122Z,7.53
2023-03-26T03:06:48.056Z,7.53
2023-03-26T03:07:48.071Z,7.56
2023-03-26T03:08:48.057Z,7.53
2023-03-26T03:09:48.046Z,7.51
2023-03-26T03:10:48.018Z,7.53
2023-03-26T03:11:48.044Z,7.53
2023-03-26T03:12:48.001Z,7.50
2023-03-26T03:13:48.014Z,7.53
2023-03-26T03:14:47.972Z,7.53
2023-03-26T03:15:47.982Z,7.56
2023-03-26T03:16:48.023Z,7.53
2023-03-26T03:17:48.040Z,7.54
2023-03-26T03:18:47.969Z,7.56
2023-03-26T03:19:47.953Z,7.53
2023-03-26T03:20:47.921Z,7.54
2023-03-26T03:21:47.928Z,7.53
2023-03-26T03:22:47.902Z,7.56
2023-03-26T03:23:47.949Z,7.53
2023-03-26T03:24:48.011Z,7.53
2023-03-26T03:25:47.902Z,7.53
2023-03-26T03:26:47.963Z,7.53
2023-03-26T03:27:47.873Z,7.54
2023-03-26T03:28:47.843Z,7.57
2023-03-26T03:29:47.864Z,7.53
2023-03-26T03:30:47.902Z,7.56
2023-03-26T03:31:47.828Z,7.54
2023-03-26T03:32:47.862Z,7.53
2023-03-26T03:33:47.852Z,7.53
2023-03-26T03:34:47.788Z,7.51
2023-03-26T03:35:47.850Z,7.50
2023-03-26T03:36:47.758Z,7.50
2023-03-26T03:37:47.768Z,7.51
2023-03-26T03:38:47.731Z,7.53
2023-03-26T03:39:47.758Z,7.50
2023-03-26T03:40:47.752Z,7.53
2023-03-26T03:41:47.761Z,7.51
2023-03-26T03:42:47.683Z,7.53
2023-03-26T03:43:47.709Z,7.50
2023-03-26T03:44:47.690Z,7.51
2023-03-26T03:45:47.698Z,7.50
2023-03-26T03:46:47.684Z,7.51
2023-03-26T03:47:47.735Z,7.48
2023-03-26T03:48:47.657Z,7.50
2023-03-26T03:49:47.643Z,7.47
2023-03-26T03:50:47.633Z,7.48
2023-03-26T03:51:47.613Z,7.47
2023-03-26T03:52:47.613Z,7.45
2023-03-26T03:53:47.625Z,7.43
2023-03-26T03:54:47.600Z,7.43
2023-03-26T03:55:47.555Z,7.40
2023-03-26T03:56:47.572Z,7.40
2023-03-26T03:57:47.547Z,7.39
2023-03-26T03:58:47.660Z,7.35
2023-03-26T03:59:48.580Z,7.36
2023-03-26T04:00:47.528Z,7.33
2023-03-26T04:01:47.497Z,7.32
2023-03-26T04:02:47.575Z,7.31
2023-03-26T04:03:47.651Z,7.28
2023-03-26T04:04:47.487Z,7.29
2023-03-26T04:05:47.474Z,7.29
2023-03-26T04:06:47.466Z,7.28
2023-03-26T04:07:47.433Z,7.28
2023-03-26T04:08:47.454Z,7.31
2023-03-26T04:09:47.415Z,7.25
2023-03-26T04:10:47.446Z,7.31
2023-03-26T04:11:47.420Z,7.29
2023-03-26T04:12:47.406Z,7.32
2023-03-26T04:13:47.385Z,7.32
2023-03-26T04:14:47.421Z,7.33
2023-03-26T04:15:47.423Z,7.33
2023-03-26T04:16:47.367Z,7.33
2023-03-26T04:17:47.443Z,7.32
2023-03-26T04:18:47.361Z,7.35
2023-03-26T04:19:47.333Z,7.36
2023-03-26T04:20:47.336Z,7.39
2023-03-26T04:21:47.292Z,7.39
2023-03-26T04:22:47.308Z,7.38
2023-03-26T04:23:47.288Z,7.42
2023-03-26T04:24:47.281Z,7.38
2023-03-26T04:25:47.246Z,7.40
2023-03-26T04:26:47.266Z,7.42
2023-03-26T04:27:47.221Z,7.45
2023-03-26T04:28:47.248Z,7.45
2023-03-26T04:29:47.234Z,7.47
2023-03-26T04:30:47.214Z,7.47
2023-03-26T04:31:47.311Z,7.47
2023-03-26T04:32:47.258Z,7.47
2023-03-26T04:33:47.171Z,7.48
2023-03-26T04:34:47.171Z,7.47
2023-03-26T04:35:47.199Z,7.48
2023-03-26T04:36:47.161Z,7.43
2023-03-26T04:37:47.149Z,7.43
2023-03-26T04:38:47.135Z,7.43
2023-03-26T04:39:47.105Z,7.45
2023-03-26T04:40:47.112Z,7.42
2023-03-26T04:41:47.101Z,7.42
2023-03-26T04:42:47.089Z,7.45
2023-03-26T04:43:47.107Z,7.50
2023-03-26T04:44:47.072Z,7.47
2023-03-26T04:45:47.073Z,7.45
2023-03-26T04:46:47.049Z,7.43
2023-03-26T04:47:47.121Z,7.47
2023-03-26T04:48:47.004Z,7.50
2023-03-26T04:49:47.016Z,7.50
2023-03-26T04:50:46.985Z,7.53
2023-03-26T04:51:47.064Z,7.48
2023-03-26T04:52:46.969Z,7.43
2023-03-26T04:53:46.996Z,7.43
2023-03-26T04:54:46.951Z,7.40
2023-03-26T04:55:46.966Z,7.38
2023-03-26T04:56:47.014Z,7.42
2023-03-26T04:57:46.943Z,7.43
2023-03-26T04:58:46.903Z,7.45
2023-03-26T04:59:46.939Z,7.48
2023-03-26T05:00:46.940Z,7.45
2023-03-26T05:01:46.894Z,7.45
2023-03-26T05:02:46.893Z,7.47
2023-03-26T05:03:46.900Z,7.47
2023-03-26T05:04:46.837Z,7.48
2023-03-26T05:05:46.880Z,7.50
2023-03-26T05:06:46.834Z,7.50
2023-03-26T05:07:46.859Z,7.50
2023-03-26T05:08:46.803Z,7.47
2023-03-26T05:09:46.855Z,7.53
2023-03-26T05:10:46.782Z,7.50
2023-03-26T05:11:46.806Z,7.48
2023-03-26T05:12:46.755Z,7.50
2023-03-26T05:13:46.782Z,7.53
2023-03-26T05:14:46.733Z,7.51
2023-03-26T05:15:46.752Z,7.51
2023-03-26T05:16:46.919Z,7.51
2023-03-26T05:17:46.819Z,7.53
2023-03-26T05:18:46.695Z,7.53
2023-03-26T05:19:46.711Z,7.50
2023-03-26T05:20:46.684Z,7.48
2023-03-26T05:21:46.688Z,7.50
2023-03-26T05:22:46.657Z,7.53
2023-03-26T05:23:46.698Z,7.47
2023-03-26T05:24:46.633Z,7.50
2023-03-26T05:25:46.639Z,7.50
2023-03-26T05:26:46.623Z,7.48
2023-03-26T05:27:46.630Z,7.51
2023-03-26T05:28:46.595Z,7.51
2023-03-26T05:29:46.616Z,7.48
2023-03-26T05:30:46.567Z,7.50
2023-03-26T05:31:46.609Z,7.53
2023-03-26T05:32:46.590Z,7.53
2023-03-26T05:33:46.638Z,7.53
2023-03-26T05:34:46.527Z,7.53
2023-03-26T05:35:46.573Z,7.56
2023-03-26T05:36:46.505Z,7.58
2023-03-26T05:37:46.528Z,7.54
2023-03-26T05:38:46.485Z,7.60
2023-03-26T05:39:46.513Z,7.61
2023-03-26T05:40:46.485Z,7.61
2023-03-26T05:41:46.511Z,7.61
2023-03-26T05:42:46.444Z,7.61
2023-03-26T05:43:46.465Z,7.61
2023-03-26T05:44:46.416Z,7.58
2023-03-26T05:45:46.457Z,7.57
2023-03-26T05:46:46.415Z,7.58
2023-03-26T05:47:46.454Z,7.58
2023-03-26T05:48:46.381Z,7.61
2023-03-26T05:49:46.403Z,7.63
2023-03-26T05:50:46.356Z,7.63
2023-03-26T05:51:46.371Z,7.67
2023-03-26T05:52:46.346Z,7.67
2023-03-26T05:53:46.381Z,7.69
2023-03-26T05:54:46.332Z,7.73
2023-03-26T05:55:46.337Z,7.72
2023-03-26T05:56:46.316Z,7.73
2023-03-26T05:57:46.308Z,7.75
2023-03-26T05:58:46.279Z,7.70
2023-03-26T05:59:46.312Z,7.67
2023-03-26T06:00:46.249Z,7.66
2023-03-26T06:01:46.296Z,7.67
2023-03-26T06:02:46.290Z,7.67
2023-03-26T06:03:46.308Z,7.70
2023-03-26T06:04:46.330Z,7.69
2023-03-26T06:05:46.249Z,7.66
2023-03-26T06:06:46.192Z,7.69
2023-03-26T06:07:46.207Z,7.70
2023-03-26T06:08:46.175Z,7.70
2023-03-26T06:09:46.184Z,7.69
2023-03-26T06:10:46.158Z,7.72
2023-03-26T06:11:46.184Z,7.75
2023-03-26T06:12:46.128Z,7.76
2023-03-26T06:13:46.149Z,7.77
2023-03-26T06:14:46.114Z,7.76
2023-03-26T06:15:46.185Z,7.75
2023-03-26T06:16:46.097Z,7.79
2023-03-26T06:17:46.229Z,7.76
2023-03-26T06:18:46.081Z,7.83
2023-03-26T06:19:46.085Z,7.82
2023-03-26T06:20:46.044Z,7.88
2023-03-26T06:21:46.072Z,7.90
2023-03-26T06:22:46.027Z,7.88
2023-03-26T06:23:46.050Z,7.88
2023-03-26T06:24:46.005Z,7.93
2023-03-26T06:25:46.012Z,7.94
2023-03-26T06:26:45.984Z,7.97
2023-03-26T06:27:46.012Z,7.98
2023-03-26T06:28:45.970Z,8.00
2023-03-26T06:29:46.028Z,8.00
2023-03-26T06:30:45.945Z,8.01
2023-03-26T06:31:45.969Z,7.98
2023-03-26T06:32:45.943Z,7.97
2023-03-26T06:33:45.952Z,7.95
2023-03-26T06:34:45.897Z,7.93
2023-03-26T06:35:45.963Z,7.91
2023-03-26T06:36:45.884Z,7.91
2023-03-26T06:37:45.890Z,8.01
2023-03-26T06:38:45.871Z,8.01
2023-03-26T06:39:45.895Z,8.08
2023-03-26T06:40:45.853Z,8.09
2023-03-26T06:41:45.875Z,8.10
2023-03-26T06:43:08.818Z,8.15
2023-03-26T06:43:45.834Z,8.16
2023-03-26T06:44:45.803Z,8.13
2023-03-26T06:45:45.810Z,8.18
2023-03-26T06:46:45.789Z,8.12
2023-03-26T06:47:45.890Z,8.12
2023-03-26T06:48:45.758Z,8.13
2023-03-26T06:49:45.767Z,8.15
2023-03-26T06:50:45.736Z,8.16
2023-03-26T06:51:45.763Z,8.20
2023-03-26T06:52:45.714Z,8.18
2023-03-26T06:53:45.749Z,8.24
2023-03-26T06:54:45.693Z,8.26
2023-03-26T06:55:45.706Z,8.26
2023-03-26T06:56:45.705Z,8.31
2023-03-26T06:57:45.683Z,8.23
2023-03-26T06:58:45.651Z,8.24
2023-03-26T06:59:45.690Z,8.24
2023-03-26T07:00:45.660Z,8.28
2023-03-26T07:01:46.798Z,8.34
2023-03-26T07:02:45.636Z,8.34
2023-03-26T07:03:45.675Z,8.37
2023-03-26T07:04:45.596Z,8.34
2023-03-26T07:05:45.625Z,8.37
2023-03-26T07:06:45.577Z,8.41
2023-03-26T07:07:46.463Z,8.38
2023-03-26T07:08:45.556Z,8.36
2023-03-26T07:09:45.562Z,8.37
2023-03-26T07:10:45.526Z,8.31
2023-03-26T07:11:45.559Z,8.30
2023-03-26T07:12:45.508Z,8.31
2023-03-26T07:13:45.559Z,8.24
2023-03-26T07:14:45.486Z,8.30
2023-03-26T07:15:45.502Z,8.23
2023-03-26T07:16:45.511Z,8.18
2023-03-26T07:17:45.553Z,8.13
2023-03-26T07:18:45.449Z,8.16
2023-03-26T07:19:45.458Z,8.19
2023-03-26T07:20:45.422Z,8.23
2023-03-26T07:21:45.439Z,8.26
2023-03-26T07:22:45.404Z,8.26
2023-03-26T07:23:45.446Z,8.27
2023-03-26T07:24:45.390Z,8.27
2023-03-26T07:25:45.409Z,8.24
2023-03-26T07:26:45.489Z,8.26
2023-03-26T07:27:45.376Z,8.30
2023-03-26T07:29:04.839Z,8.28
2023-03-26T07:29:45.393Z,8.30
2023-03-26T07:30:45.322Z,8.27
2023-03-26T07:31:45.387Z,8.26
2023-03-26T07:32:45.362Z,8.27
2023-03-26T07:33:45.317Z,8.27
2023-03-26T07:34:45.278Z,8.26
2023-03-26T07:35:45.325Z,8.27
2023-03-26T07:36:45.280Z,8.30
2023-03-26T07:37:45.277Z,8.36
2023-03-26T07:38:45.236Z,8.37
2023-03-26T07:39:45.256Z,8.41
2023-03-26T07:40:45.226Z,8.41
2023-03-26T07:41:45.259Z,8.41
2023-03-26T07:42:45.195Z,8.38
2023-03-26T07:43:45.212Z,8.34
2023-03-26T07:44:45.177Z,8.34
2023-03-26T07:45:45.231Z,8.41
2023-03-26T07:46:45.157Z,8.41
2023-03-26T07:47:45.271Z,8.45
2023-03-26T07:48:45.132Z,8.45
2023-03-26T07:49:45.144Z,8.48
2023-03-26T07:50:45.112Z,8.53
2023-03-26T07:51:45.126Z,8.46
2023-03-26T07:52:45.087Z,8.42
2023-03-26T07:53:45.126Z,8.41
2023-03-26T07:54:45.073Z,8.38
2023-03-26T07:55:45.082Z,8.44
2023-03-26T07:56:45.113Z,8.48
2023-03-26T07:57:45.080Z,8.52
2023-03-26T07:58:45.025Z,8.52
2023-03-26T07:59:45.072Z,8.55
2023-03-26T08:00:45.008Z,8.58
2023-03-26T08:01:45.015Z,8.56
2023-03-26T08:02:45.049Z,8.53
2023-03-26T08:03:45.062Z,8.56
2023-03-26T08:04:45.044Z,8.56
2023-03-26T08:05:45.009Z,8.55
2023-03-26T08:06:44.950Z,8.51
2023-03-26T08:07:44.964Z,8.53
2023-03-26T08:08:44.952Z,8.53
2023-03-26T08:09:44.937Z,8.53
2023-03-26T08:10:44.902Z,8.48
2023-03-26T08:11:44.947Z,8.52
2023-03-26T08:12:44.883Z,8.52
2023-03-26T08:13:44.894Z,8.53
2023-03-26T08:14:44.872Z,8.56
2023-03-26T08:15:44.934Z,8.53
2023-03-26T08:16:44.844Z,8.52
2023-03-26T08:17:44.920Z,8.55
2023-03-26T08:18:44.834Z,8.56
2023-03-26T08:19:44.899Z,8.49
2023-03-26T08:20:44.801Z,8.48
2023-03-26T08:21:44.812Z,8.41
2023-03-26T08:22:44.781Z,8.45
2023-03-26T08:23:50.386Z,8.46
2023-03-26T08:24:44.761Z,8.45
2023-03-26T08:25:44.778Z,8.41
2023-03-26T08:26:44.736Z,8.36
2023-03-26T08:27:44.753Z,8.24
2023-03-26T08:28:44.727Z,8.31
2023-03-26T08:29:44.757Z,8.37
2023-03-26T08:30:44.728Z,8.41
2023-03-26T08:31:44.719Z,8.37
2023-03-26T08:32:44.690Z,8.38
2023-03-26T08:33:44.685Z,8.44
2023-03-26T08:34:44.663Z,8.52
2023-03-26T08:35:44.763Z,8.46
2023-03-26T08:36:44.632Z,8.38
2023-03-26T08:37:44.666Z,8.36
2023-03-26T08:38:46.837Z,8.36
2023-03-26T08:39:44.622Z,8.42
2023-03-26T08:40:44.590Z,8.41
2023-03-26T08:41:44.645Z,8.41
2023-03-26T08:42:44.571Z,8.42
2023-03-26T08:43:44.582Z,8.36
2023-03-26T08:44:44.551Z,8.33
2023-03-26T08:45:44.565Z,8.38
2023-03-26T08:46:44.565Z,8.48
2023-03-26T08:47:44.635Z,8.51
2023-03-26T08:48:44.503Z,8.42
2023-03-26T08:49:44.530Z,8.53
2023-03-26T08:50:44.498Z,8.64
2023-03-26T08:51:44.502Z,8.61
2023-03-26T08:52:44.464Z,8.61
2023-03-26T08:53:44.517Z,8.66
2023-03-26T08:54:44.446Z,8.60
2023-03-26T08:55:44.459Z,8.60
2023-03-26T08:56:44.459Z,8.56
2023-03-26T08:57:44.435Z,8.55
2023-03-26T08:58:44.406Z,8.55
2023-03-26T08:59:44.444Z,8.52
2023-03-26T09:00:44.386Z,8.56
2023-03-26T09:01:44.419Z,8.67
2023-03-26T09:02:44.399Z,8.69
2023-03-26T09:03:44.391Z,8.74
2023-03-26T09:04:44.373Z,8.79
2023-03-26T09:05:44.372Z,8.73
2023-03-26T09:06:44.345Z,8.67
2023-03-26T09:07:44.310Z,8.69
2023-03-26T09:08:54.489Z,8.73
2023-03-26T09:09:44.302Z,8.76
2023-03-26T09:10:44.301Z,8.79
2023-03-26T09:11:44.298Z,8.74
2023-03-26T09:12:44.285Z,8.70
2023-03-26T09:13:44.262Z,8.71
2023-03-26T09:14:44.264Z,8.74
2023-03-26T09:15:44.237Z,8.70
2023-03-26T09:16:44.304Z,8.70
2023-03-26T09:17:44.269Z,8.70
2023-03-26T09:18:44.228Z,8.73
2023-03-26T09:19:44.195Z,8.74
2023-03-26T09:20:44.202Z,8.73
2023-03-26T09:21:44.170Z,8.63
2023-03-26T09:22:44.174Z,8.51
2023-03-26T09:23:44.155Z,8.44
2023-03-26T09:24:44.160Z,8.48
2023-03-26T09:25:44.136Z,8.56
2023-03-26T09:26:44.151Z,8.64
2023-03-26T09:27:44.100Z,8.63
2023-03-26T09:28:44.129Z,8.53
2023-03-26T09:29:44.118Z,8.51
2023-03-26T09:30:44.094Z,8.52
2023-03-26T09:31:44.078Z,8.55
2023-03-26T09:32:44.097Z,8.52
2023-03-26T09:33:44.049Z,8.51
2023-03-26T09:34:44.054Z,8.46
2023-03-26T09:35:44.070Z,8.52
2023-03-26T09:36:44.030Z,8.51
2023-03-26T09:37:57.116Z,8.55
2023-03-26T09:38:44.029Z,8.58
2023-03-26T09:39:43.978Z,8.53
2023-03-26T09:40:44.030Z,8.52
2023-03-26T09:41:43.987Z,8.53
2023-03-26T09:42:43.983Z,8.42
2023-03-26T09:43:43.985Z,8.33
2023-03-26T09:44:43.981Z,8.34
2023-03-26T09:45:43.947Z,8.24
2023-03-26T09:46:45.587Z,8.20
2023-03-26T09:47:44.012Z,8.30
2023-03-26T09:48:43.924Z,8.30
2023-03-26T09:49:43.928Z,8.34
2023-03-26T09:50:43.891Z,8.38
2023-03-26T09:51:43.884Z,8.37
2023-03-26T09:52:43.883Z,8.31
2023-03-26T09:53:43.888Z,8.36
2023-03-26T09:54:43.865Z,8.37
2023-03-26T09:55:43.829Z,8.36
2023-03-26T09:56:43.899Z,8.41
2023-03-26T09:57:43.836Z,8.45
2023-03-26T09:58:43.829Z,8.37
2023-03-26T09:59:43.797Z,8.31
2023-03-26T10:00:43.818Z,8.36
2023-03-26T10:01:43.789Z,8.42
2023-03-26T10:02:46.067Z,8.44
2023-03-26T10:03:43.732Z,8.45
2023-03-26T10:04:43.793Z,8.44
2023-03-26T10:05:43.733Z,8.48
2023-03-26T10:06:43.718Z,8.37
2023-03-26T10:07:43.690Z,8.38
2023-03-26T10:08:43.697Z,8.45
2023-03-26T10:09:43.680Z,8.53
2023-03-26T10:10:43.683Z,8.42
2023-03-26T10:11:43.675Z,8.41
2023-03-26T10:12:43.664Z,8.48
2023-03-26T10:13:43.623Z,8.56
2023-03-26T10:14:43.646Z,8.53
2023-03-26T10:15:43.609Z,8.53
2023-03-26T10:16:43.660Z,8.51
2023-03-26T10:17:43.668Z,8.44
2023-03-26T10:18:43.593Z,8.49
2023-03-26T10:19:43.572Z,8.49
2023-03-26T10:20:43.572Z,8.42
2023-03-26T10:21:43.538Z,8.44
2023-03-26T10:22:43.571Z,8.49
2023-03-26T10:23:43.549Z,8.44
2023-03-26T10:24:43.532Z,8.38
2023-03-26T10:25:43.505Z,8.36
2023-03-26T10:27:10.295Z,8.45
2023-03-26T10:27:43.482Z,8.48
2023-03-26T10:28:43.486Z,8.56
2023-03-26T10:29:43.482Z,8.53
2023-03-26T10:30:43.500Z,8.52
2023-03-26T10:31:43.439Z,8.58
2023-03-26T10:32:43.465Z,8.61
2023-03-26T10:33:43.419Z,8.63
2023-03-26T10:34:43.429Z,8.70
2023-03-26T10:35:43.432Z,8.64
2023-03-26T10:36:43.404Z,8.63
2023-03-26T10:37:43.374Z,8.63
2023-03-26T10:38:43.383Z,8.70
2023-03-26T10:39:43.681Z,8.78
2023-03-26T10:40:43.365Z,8.85
2023-03-26T10:41:43.394Z,8.88
2023-03-26T10:42:43.383Z,8.87
2023-03-26T10:43:43.310Z,8.88
2023-03-26T10:44:43.335Z,8.91
2023-03-26T10:45:43.293Z,8.92
2023-03-26T10:46:43.296Z,8.94
2023-03-26T10:47:43.353Z,8.97
2023-03-26T10:48:43.281Z,9.03
2023-03-26T10:49:43.251Z,9.10
2023-03-26T10:50:43.315Z,9.22
2023-03-26T10:51:43.264Z,9.23
2023-03-26T10:52:43.234Z,9.19
2023-03-26T10:53:43.225Z,9.25
2023-03-26T10:54:43.239Z,9.32
2023-03-26T10:55:43.180Z,9.37
2023-03-26T10:56:43.211Z,9.43
2023-03-26T10:57:43.184Z,9.43
2023-03-26T10:58:48.469Z,9.39
2023-03-26T10:59:43.189Z,9.34
2023-03-26T11:00:43.157Z,9.22
2023-03-26T11:01:43.179Z,9.18
2023-03-26T11:02:43.261Z,9.22
2023-03-26T11:03:43.101Z,9.22
2023-03-26T11:04:43.139Z,9.19
2023-03-26T11:05:43.147Z,9.19
2023-03-26T11:06:43.102Z,9.21
2023-03-26T11:07:43.065Z,9.23
2023-03-26T11:08:43.082Z,9.19
2023-03-26T11:09:43.044Z,9.14
2023-03-26T11:10:43.074Z,9.21
2023-03-26T11:11:43.049Z,9.22
2023-03-26T11:12:43.045Z,9.19
2023-03-26T11:13:43.001Z,9.02
2023-03-26T11:14:43.019Z,8.95
2023-03-26T11:15:42.987Z,8.89
2023-03-26T11:16:42.992Z,8.87
2023-03-26T11:17:43.031Z,8.88
2023-03-26T11:18:43.004Z,8.89
2023-03-26T11:19:42.938Z,8.92
2023-03-26T11:20:42.955Z,8.95
2023-03-26T11:21:42.918Z,8.92
2023-03-26T11:22:42.961Z,8.88
2023-03-26T11:23:42.923Z,8.88
2023-03-26T11:24:42.917Z,8.85
2023-03-26T11:25:42.882Z,8.85
2023-03-26T11:26:42.889Z,8.71
2023-03-26T11:27:42.873Z,8.69
2023-03-26T11:28:49.654Z,8.67
2023-03-26T11:29:42.864Z,8.63
2023-03-26T11:30:42.844Z,8.64
2023-03-26T11:31:42.828Z,8.67
2023-03-26T11:32:42.856Z,8.71
2023-03-26T11:33:46.202Z,8.69
2023-03-26T11:34:42.835Z,8.73
2023-03-26T11:35:42.823Z,8.71
2023-03-26T11:36:42.782Z,8.71
2023-03-26T11:37:42.752Z,8.73
2023-03-26T11:38:42.765Z,8.78
2023-03-26T11:39:42.732Z,8.81
2023-03-26T11:40:42.749Z,8.84
2023-03-26T11:41:42.729Z,8.85
2023-03-26T11:42:42.727Z,8.82
2023-03-26T11:43:42.704Z,8.81
2023-03-26T11:44:42.703Z,8.74
2023-03-26T11:45:42.678Z,8.67
2023-03-26T11:46:42.772Z,8.67
2023-03-26T11:47:42.780Z,8.73
2023-03-26T11:48:42.660Z,8.76
2023-03-26T11:49:42.638Z,8.84
2023-03-26T11:50:42.656Z,8.88
2023-03-26T11:51:42.617Z,8.94
2023-03-26T11:52:42.621Z,8.84
2023-03-26T11:53:42.605Z,8.82
2023-03-26T11:54:42.601Z,8.78
2023-03-26T11:55:42.568Z,8.78
2023-03-26T11:57:06.089Z,8.76
2023-03-26T11:57:42.543Z,8.81
2023-03-26T11:58:42.559Z,8.87
2023-03-26T11:59:53.730Z,8.87
2023-03-26T12:00:42.532Z,8.88
2023-03-26T12:01:42.521Z,8.88
2023-03-26T12:02:42.602Z,8.88
2023-03-26T12:03:42.489Z,8.91
2023-03-26T12:04:42.546Z,8.92
2023-03-26T12:05:42.490Z,8.88
2023-03-26T12:06:42.462Z,8.89
2023-03-26T12:07:42.433Z,8.87
2023-03-26T12:08:42.451Z,8.87
2023-03-26T12:09:42.420Z,8.87
2023-03-26T12:10:42.426Z,8.84
2023-03-26T12:11:42.413Z,8.82
2023-03-26T12:12:42.405Z,8.82
2023-03-26T12:13:42.386Z,8.74
2023-03-26T12:14:42.393Z,8.73
2023-03-26T12:15:42.348Z,8.78
2023-03-26T12:16:42.431Z,8.89
2023-03-26T12:17:42.382Z,8.95
2023-03-26T12:18:42.351Z,9.00
2023-03-26T12:19:42.339Z,9.03
2023-03-26T12:20:42.326Z,9.06
2023-03-26T12:21:42.282Z,9.11
2023-03-26T12:22:43.580Z,9.04
2023-03-26T12:23:42.291Z,9.06
2023-03-26T12:24:42.288Z,9.06
2023-03-26T12:25:42.246Z,9.03
2023-03-26T12:26:42.260Z,8.99
2023-03-26T12:27:42.221Z,9.00
2023-03-26T12:28:43.025Z,9.00
2023-03-26T12:29:42.220Z,8.91
2023-03-26T12:30:42.223Z,8.92
2023-03-26T12:31:42.216Z,8.94
2023-03-26T12:32:46.119Z,8.99
2023-03-26T12:33:42.164Z,9.03
2023-03-26T12:34:42.190Z,9.04
2023-03-26T12:35:42.193Z,9.08
2023-03-26T12:36:42.150Z,9.06
2023-03-26T12:37:42.116Z,9.04
2023-03-26T12:38:42.146Z,9.03
2023-03-26T12:40:07.350Z,9.00
2023-03-26T12:40:42.119Z,8.97
2023-03-26T12:43:51.614Z,8.95
2023-03-26T12:44:58.833Z,8.94
2023-03-26T12:45:05.420Z,8.89
2023-03-26T12:47:46.111Z,8.92
2023-03-26T12:48:04.738Z,8.94
2023-03-26T12:48:10.173Z,9.00
2023-03-26T12:49:10.156Z,8.99
2023-03-26T12:50:10.069Z,9.06
2023-03-26T12:51:10.049Z,9.10
2023-03-26T12:52:10.060Z,9.14
2023-03-26T12:53:10.077Z,9.21
2023-03-26T12:54:10.038Z,9.26
2023-03-26T12:55:12.141Z,9.28
2023-03-26T12:56:09.985Z,9.25
2023-03-26T12:57:12.464Z,9.25
2023-03-26T12:58:13.496Z,9.25
2023-03-26T12:59:09.961Z,9.25
2023-03-26T13:00:09.942Z,9.28
2023-03-26T13:01:09.963Z,9.28
2023-03-26T13:02:09.970Z,9.29
2023-03-26T13:03:09.978Z,9.28
2023-03-26T13:04:09.902Z,9.31
2023-03-26T13:05:09.892Z,9.36
2023-03-26T13:06:09.885Z,9.23
2023-03-26T13:07:09.853Z,9.22
2023-03-26T13:08:09.870Z,9.21
2023-03-26T13:09:09.828Z,9.29
2023-03-26T13:10:09.849Z,9.31
2023-03-26T13:11:09.840Z,9.31
2023-03-26T13:12:09.824Z,9.37
2023-03-26T13:13:09.795Z,9.44
2023-03-26T13:14:09.777Z,9.43
2023-03-26T13:15:09.792Z,9.44
2023-03-26T13:16:09.785Z,9.34
2023-03-26T13:17:09.819Z,9.39
2023-03-26T13:18:09.757Z,9.41
2023-03-26T13:19:09.757Z,9.44
2023-03-26T13:20:09.715Z,9.50